Terminal Aerodrome Forecast
Issued by NWS

Home | Current Version | Previous Version | Text Only | Print | Product List | Glossary Off
Versions: 1 2 3 4 5 6 7 8 9 10 11 12 13 14 15 16 17 18 19 20 21 22 23 24 25 26 27 28 29 30 31 32 33
000 FTUS41 KBOX 291736 TAFBED TAF KBED 291736Z 2918/3018 26007KT P6SM SCT050 FM292100 21005KT P6SM FEW050 SCT060 TEMPO 3007/3011 4SM BR FM301500 22010G18KT P6SM FEW050 SCT250 FM301700 22011G21KT P6SM BKN050=

USA.gov is the U.S. government's official web portal to all federal, state and local government web resources and services.